sensor_id;sensor_type;location;lat;lon;timestamp;P1;durP1;ratioP1;P2;durP2;ratioP2
7108;SDS011;29079;41.930;25.558;2023-07-09T00:01:40;9.10;;;6.82;;
7108;SDS011;29079;41.930;25.558;2023-07-09T00:04:28;6.90;;;6.20;;
7108;SDS011;29079;41.930;25.558;2023-07-09T00:07:17;6.35;;;5.75;;
7108;SDS011;29079;41.930;25.558;2023-07-09T00:10:13;12.82;;;6.60;;
7108;SDS011;29079;41.930;25.558;2023-07-09T00:13:03;7.60;;;6.80;;
7108;SDS011;29079;41.930;25.558;2023-07-09T00:16:00;12.77;;;6.47;;
7108;SDS011;29079;41.930;25.558;2023-07-09T00:18:52;6.82;;;6.18;;
7108;SDS011;29079;41.930;25.558;2023-07-09T00:21:40;8.73;;;5.70;;
7108;SDS011;29079;41.930;25.558;2023-07-09T00:24:27;9.07;;;6.65;;
7108;SDS011;29079;41.930;25.558;2023-07-09T00:27:16;8.10;;;6.57;;
7108;SDS011;29079;41.930;25.558;2023-07-09T00:30:08;7.60;;;6.55;;
7108;SDS011;29079;41.930;25.558;2023-07-09T00:33:03;7.28;;;5.22;;
7108;SDS011;29079;41.930;25.558;2023-07-09T00:35:51;10.73;;;6.10;;
7108;SDS011;29079;41.930;25.558;2023-07-09T00:38:38;8.93;;;5.60;;
7108;SDS011;29079;41.930;25.558;2023-07-09T00:41:27;6.82;;;5.65;;
7108;SDS011;29079;41.930;25.558;2023-07-09T00:44:20;11.27;;;6.18;;
7108;SDS011;29079;41.930;25.558;2023-07-09T00:47:22;13.68;;;6.53;;
7108;SDS011;29079;41.930;25.558;2023-07-09T00:50:18;8.40;;;5.47;;
7108;SDS011;29079;41.930;25.558;2023-07-09T00:53:16;8.55;;;6.05;;
7108;SDS011;29079;41.930;25.558;2023-07-09T00:56:08;7.05;;;5.80;;
7108;SDS011;29079;41.930;25.558;2023-07-09T00:59:01;8.13;;;6.47;;
7108;SDS011;29079;41.930;25.558;2023-07-09T01:01:53;6.30;;;5.57;;
7108;SDS011;29079;41.930;25.558;2023-07-09T01:04:42;7.07;;;6.13;;
7108;SDS011;29079;41.930;25.558;2023-07-09T01:07:35;6.43;;;4.97;;
7108;SDS011;29079;41.930;25.558;2023-07-09T01:10:23;6.88;;;5.63;;
7108;SDS011;29079;41.930;25.558;2023-07-09T01:13:11;7.18;;;6.45;;
7108;SDS011;29079;41.930;25.558;2023-07-09T01:15:59;8.55;;;6.40;;
7108;SDS011;29079;41.930;25.558;2023-07-09T01:18:48;7.13;;;6.18;;
7108;SDS011;29079;41.930;25.558;2023-07-09T01:21:37;7.50;;;5.95;;
7108;SDS011;29079;41.930;25.558;2023-07-09T01:27:37;6.95;;;6.15;;
7108;SDS011;29079;41.930;25.558;2023-07-09T01:30:29;7.45;;;6.22;;
7108;SDS011;29079;41.930;25.558;2023-07-09T01:33:19;7.00;;;5.80;;
7108;SDS011;29079;41.930;25.558;2023-07-09T01:36:09;7.60;;;6.10;;
7108;SDS011;29079;41.930;25.558;2023-07-09T01:39:01;9.73;;;6.10;;
7108;SDS011;29079;41.930;25.558;2023-07-09T01:41:49;6.95;;;6.25;;
7108;SDS011;29079;41.930;25.558;2023-07-09T01:44:36;8.05;;;6.22;;
7108;SDS011;29079;41.930;25.558;2023-07-09T01:47:24;8.10;;;6.13;;
7108;SDS011;29079;41.930;25.558;2023-07-09T01:50:13;10.63;;;6.60;;
7108;SDS011;29079;41.930;25.558;2023-07-09T01:53:02;7.03;;;6.32;;
7108;SDS011;29079;41.930;25.558;2023-07-09T01:55:52;7.38;;;5.78;;
7108;SDS011;29079;41.930;25.558;2023-07-09T01:58:41;8.10;;;6.15;;
7108;SDS011;29079;41.930;25.558;2023-07-09T02:01:29;9.90;;;6.32;;
7108;SDS011;29079;41.930;25.558;2023-07-09T02:04:20;9.45;;;6.35;;
7108;SDS011;29079;41.930;25.558;2023-07-09T02:07:08;11.98;;;7.18;;
7108;SDS011;29079;41.930;25.558;2023-07-09T02:09:55;8.85;;;7.57;;
7108;SDS011;29079;41.930;25.558;2023-07-09T02:12:46;9.40;;;6.70;;
7108;SDS011;29079;41.930;25.558;2023-07-09T02:15:34;8.35;;;6.70;;
7108;SDS011;29079;41.930;25.558;2023-07-09T02:18:22;7.53;;;6.72;;
7108;SDS011;29079;41.930;25.558;2023-07-09T02:21:10;10.80;;;7.10;;
7108;SDS011;29079;41.930;25.558;2023-07-09T02:23:58;8.57;;;7.38;;
7108;SDS011;29079;41.930;25.558;2023-07-09T02:26:46;9.07;;;7.65;;
7108;SDS011;29079;41.930;25.558;2023-07-09T02:29:36;8.07;;;6.55;;
7108;SDS011;29079;41.930;25.558;2023-07-09T02:32:26;8.98;;;7.32;;
7108;SDS011;29079;41.930;25.558;2023-07-09T02:35:14;8.93;;;6.95;;
7108;SDS011;29079;41.930;25.558;2023-07-09T02:38:02;8.30;;;7.40;;
7108;SDS011;29079;41.930;25.558;2023-07-09T02:40:51;10.10;;;8.32;;
7108;SDS011;29079;41.930;25.558;2023-07-09T02:43:39;13.75;;;7.43;;
7108;SDS011;29079;41.930;25.558;2023-07-09T02:46:29;13.82;;;7.72;;
7108;SDS011;29079;41.930;25.558;2023-07-09T02:49:17;8.13;;;7.35;;
7108;SDS011;29079;41.930;25.558;2023-07-09T02:52:06;10.75;;;7.20;;
7108;SDS011;29079;41.930;25.558;2023-07-09T02:54:55;10.27;;;8.02;;
7108;SDS011;29079;41.930;25.558;2023-07-09T02:57:43;11.90;;;7.93;;
7108;SDS011;29079;41.930;25.558;2023-07-09T03:00:31;14.70;;;10.88;;
7108;SDS011;29079;41.930;25.558;2023-07-09T03:03:20;14.55;;;9.27;;
7108;SDS011;29079;41.930;25.558;2023-07-09T03:06:09;13.48;;;8.10;;
7108;SDS011;29079;41.930;25.558;2023-07-09T03:08:57;19.60;;;7.63;;
7108;SDS011;29079;41.930;25.558;2023-07-09T03:11:45;198.52;;;23.70;;
7108;SDS011;29079;41.930;25.558;2023-07-09T03:14:33;17.27;;;8.65;;
7108;SDS011;29079;41.930;25.558;2023-07-09T03:17:21;11.82;;;7.85;;
7108;SDS011;29079;41.930;25.558;2023-07-09T03:20:11;8.15;;;7.25;;
7108;SDS011;29079;41.930;25.558;2023-07-09T03:22:59;9.57;;;7.03;;
7108;SDS011;29079;41.930;25.558;2023-07-09T03:25:47;9.93;;;8.02;;
7108;SDS011;29079;41.930;25.558;2023-07-09T03:28:35;14.05;;;7.03;;
7108;SDS011;29079;41.930;25.558;2023-07-09T03:31:23;10.40;;;6.93;;
7108;SDS011;29079;41.930;25.558;2023-07-09T03:34:11;8.23;;;7.43;;
7108;SDS011;29079;41.930;25.558;2023-07-09T03:37:00;7.82;;;6.00;;
7108;SDS011;29079;41.930;25.558;2023-07-09T03:39:48;10.43;;;7.05;;
7108;SDS011;29079;41.930;25.558;2023-07-09T03:42:35;16.40;;;7.78;;
7108;SDS011;29079;41.930;25.558;2023-07-09T03:45:23;8.60;;;6.57;;
7108;SDS011;29079;41.930;25.558;2023-07-09T03:48:11;13.98;;;7.35;;
7108;SDS011;29079;41.930;25.558;2023-07-09T03:51:00;11.48;;;6.85;;
7108;SDS011;29079;41.930;25.558;2023-07-09T03:53:50;10.73;;;6.40;;
7108;SDS011;29079;41.930;25.558;2023-07-09T03:56:37;8.65;;;6.93;;
7108;SDS011;29079;41.930;25.558;2023-07-09T03:59:25;11.48;;;6.35;;
7108;SDS011;29079;41.930;25.558;2023-07-09T04:02:13;7.38;;;6.45;;
7108;SDS011;29079;41.930;25.558;2023-07-09T04:05:01;9.85;;;5.88;;
7108;SDS011;29079;41.930;25.558;2023-07-09T04:07:50;8.98;;;6.40;;
7108;SDS011;29079;41.930;25.558;2023-07-09T04:10:39;9.70;;;6.38;;
7108;SDS011;29079;41.930;25.558;2023-07-09T04:13:27;7.50;;;5.78;;
7108;SDS011;29079;41.930;25.558;2023-07-09T04:16:15;10.35;;;6.50;;
7108;SDS011;29079;41.930;25.558;2023-07-09T04:19:03;10.93;;;6.45;;
7108;SDS011;29079;41.930;25.558;2023-07-09T04:21:51;9.70;;;6.50;;
7108;SDS011;29079;41.930;25.558;2023-07-09T04:24:39;9.07;;;6.63;;
7108;SDS011;29079;41.930;25.558;2023-07-09T04:27:28;8.95;;;6.97;;
7108;SDS011;29079;41.930;25.558;2023-07-09T04:30:16;8.63;;;6.40;;
7108;SDS011;29079;41.930;25.558;2023-07-09T04:33:04;13.50;;;7.10;;
7108;SDS011;29079;41.930;25.558;2023-07-09T04:35:52;10.05;;;7.72;;
7108;SDS011;29079;41.930;25.558;2023-07-09T04:38:40;12.98;;;7.13;;
7108;SDS011;29079;41.930;25.558;2023-07-09T04:41:28;10.90;;;7.65;;
7108;SDS011;29079;41.930;25.558;2023-07-09T04:44:17;10.65;;;7.45;;
7108;SDS011;29079;41.930;25.558;2023-07-09T04:47:05;9.98;;;7.53;;
7108;SDS011;29079;41.930;25.558;2023-07-09T04:49:53;12.82;;;8.20;;
7108;SDS011;29079;41.930;25.558;2023-07-09T04:52:41;10.52;;;7.53;;
7108;SDS011;29079;41.930;25.558;2023-07-09T04:55:29;15.50;;;7.70;;
7108;SDS011;29079;41.930;25.558;2023-07-09T04:58:17;11.00;;;7.53;;
7108;SDS011;29079;41.930;25.558;2023-07-09T05:01:06;11.30;;;7.95;;
7108;SDS011;29079;41.930;25.558;2023-07-09T05:03:54;11.15;;;7.60;;
7108;SDS011;29079;41.930;25.558;2023-07-09T05:06:42;9.25;;;7.20;;
7108;SDS011;29079;41.930;25.558;2023-07-09T05:09:30;11.07;;;7.53;;
7108;SDS011;29079;41.930;25.558;2023-07-09T05:12:18;9.90;;;7.65;;
7108;SDS011;29079;41.930;25.558;2023-07-09T05:15:07;12.80;;;7.90;;
7108;SDS011;29079;41.930;25.558;2023-07-09T05:17:56;9.07;;;8.15;;
7108;SDS011;29079;41.930;25.558;2023-07-09T05:20:45;8.13;;;7.32;;
7108;SDS011;29079;41.930;25.558;2023-07-09T05:23:34;7.25;;;6.55;;
7108;SDS011;29079;41.930;25.558;2023-07-09T05:26:22;8.15;;;7.07;;
7108;SDS011;29079;41.930;25.558;2023-07-09T05:29:10;12.10;;;8.20;;
7108;SDS011;29079;41.930;25.558;2023-07-09T05:31:58;9.68;;;6.65;;
7108;SDS011;29079;41.930;25.558;2023-07-09T05:34:47;8.43;;;6.93;;
7108;SDS011;29079;41.930;25.558;2023-07-09T05:37:35;9.43;;;6.32;;
7108;SDS011;29079;41.930;25.558;2023-07-09T05:40:23;9.65;;;6.40;;
7108;SDS011;29079;41.930;25.558;2023-07-09T05:43:11;11.10;;;6.13;;
7108;SDS011;29079;41.930;25.558;2023-07-09T05:46:00;9.55;;;6.53;;
7108;SDS011;29079;41.930;25.558;2023-07-09T05:48:49;9.15;;;6.63;;
7108;SDS011;29079;41.930;25.558;2023-07-09T05:51:38;8.25;;;7.18;;
7108;SDS011;29079;41.930;25.558;2023-07-09T05:54:26;10.52;;;7.25;;
7108;SDS011;29079;41.930;25.558;2023-07-09T05:57:14;8.50;;;7.57;;
7108;SDS011;29079;41.930;25.558;2023-07-09T06:00:02;6.88;;;5.95;;
7108;SDS011;29079;41.930;25.558;2023-07-09T06:02:51;9.85;;;7.25;;
7108;SDS011;29079;41.930;25.558;2023-07-09T06:05:39;15.52;;;7.22;;
7108;SDS011;29079;41.930;25.558;2023-07-09T06:08:30;11.60;;;6.45;;
7108;SDS011;29079;41.930;25.558;2023-07-09T06:11:17;9.13;;;7.07;;
7108;SDS011;29079;41.930;25.558;2023-07-09T06:14:06;11.10;;;6.47;;
7108;SDS011;29079;41.930;25.558;2023-07-09T06:16:54;6.75;;;5.47;;
7108;SDS011;29079;41.930;25.558;2023-07-09T06:19:42;7.68;;;6.18;;
7108;SDS011;29079;41.930;25.558;2023-07-09T06:22:30;8.68;;;5.47;;
7108;SDS011;29079;41.930;25.558;2023-07-09T06:25:19;8.07;;;5.88;;
7108;SDS011;29079;41.930;25.558;2023-07-09T06:28:07;9.77;;;6.43;;
7108;SDS011;29079;41.930;25.558;2023-07-09T06:30:55;9.30;;;6.10;;
7108;SDS011;29079;41.930;25.558;2023-07-09T06:33:43;11.68;;;6.93;;
7108;SDS011;29079;41.930;25.558;2023-07-09T06:36:31;7.95;;;5.95;;
7108;SDS011;29079;41.930;25.558;2023-07-09T06:39:19;8.43;;;5.78;;
7108;SDS011;29079;41.930;25.558;2023-07-09T06:42:08;11.38;;;6.85;;
7108;SDS011;29079;41.930;25.558;2023-07-09T06:44:56;12.55;;;7.25;;
7108;SDS011;29079;41.930;25.558;2023-07-09T06:47:44;7.35;;;5.43;;
7108;SDS011;29079;41.930;25.558;2023-07-09T06:50:32;6.88;;;4.82;;
7108;SDS011;29079;41.930;25.558;2023-07-09T06:53:21;8.68;;;4.65;;
7108;SDS011;29079;41.930;25.558;2023-07-09T06:56:09;7.30;;;5.32;;
7108;SDS011;29079;41.930;25.558;2023-07-09T06:58:58;11.48;;;5.22;;
7108;SDS011;29079;41.930;25.558;2023-07-09T07:01:46;7.20;;;5.35;;
7108;SDS011;29079;41.930;25.558;2023-07-09T07:04:34;9.15;;;5.45;;
7108;SDS011;29079;41.930;25.558;2023-07-09T07:07:22;9.10;;;5.47;;
7108;SDS011;29079;41.930;25.558;2023-07-09T07:10:10;10.68;;;4.75;;
7108;SDS011;29079;41.930;25.558;2023-07-09T07:12:58;11.25;;;5.25;;
7108;SDS011;29079;41.930;25.558;2023-07-09T07:15:49;7.07;;;5.15;;
7108;SDS011;29079;41.930;25.558;2023-07-09T07:18:37;6.95;;;4.65;;
7108;SDS011;29079;41.930;25.558;2023-07-09T07:21:25;6.75;;;4.30;;
7108;SDS011;29079;41.930;25.558;2023-07-09T07:24:13;7.68;;;5.07;;
7108;SDS011;29079;41.930;25.558;2023-07-09T07:27:01;7.65;;;4.85;;
7108;SDS011;29079;41.930;25.558;2023-07-09T07:29:48;7.30;;;5.13;;
7108;SDS011;29079;41.930;25.558;2023-07-09T07:32:39;5.07;;;4.30;;
7108;SDS011;29079;41.930;25.558;2023-07-09T07:35:32;5.97;;;4.32;;
7108;SDS011;29079;41.930;25.558;2023-07-09T07:38:20;4.75;;;3.97;;
7108;SDS011;29079;41.930;25.558;2023-07-09T07:41:08;4.97;;;4.45;;
7108;SDS011;29079;41.930;25.558;2023-07-09T07:43:57;9.73;;;4.80;;
7108;SDS011;29079;41.930;25.558;2023-07-09T07:46:45;6.05;;;4.85;;
7108;SDS011;29079;41.930;25.558;2023-07-09T07:49:34;7.07;;;4.85;;
7108;SDS011;29079;41.930;25.558;2023-07-09T07:52:22;6.78;;;4.18;;
7108;SDS011;29079;41.930;25.558;2023-07-09T07:55:11;7.05;;;4.47;;
7108;SDS011;29079;41.930;25.558;2023-07-09T07:58:04;6.70;;;4.30;;
7108;SDS011;29079;41.930;25.558;2023-07-09T08:00:54;4.57;;;4.18;;
7108;SDS011;29079;41.930;25.558;2023-07-09T08:03:43;5.72;;;4.55;;
7108;SDS011;29079;41.930;25.558;2023-07-09T08:06:32;7.10;;;4.40;;
7108;SDS011;29079;41.930;25.558;2023-07-09T08:09:20;6.95;;;4.35;;
7108;SDS011;29079;41.930;25.558;2023-07-09T08:12:08;8.45;;;4.60;;
7108;SDS011;29079;41.930;25.558;2023-07-09T08:15:01;6.32;;;4.93;;
7108;SDS011;29079;41.930;25.558;2023-07-09T08:17:49;4.35;;;3.95;;
7108;SDS011;29079;41.930;25.558;2023-07-09T08:20:37;6.00;;;4.10;;
7108;SDS011;29079;41.930;25.558;2023-07-09T08:23:31;5.57;;;4.25;;
7108;SDS011;29079;41.930;25.558;2023-07-09T08:26:19;5.72;;;5.03;;
7108;SDS011;29079;41.930;25.558;2023-07-09T08:29:07;5.25;;;4.30;;
7108;SDS011;29079;41.930;25.558;2023-07-09T08:31:55;4.28;;;3.88;;
7108;SDS011;29079;41.930;25.558;2023-07-09T08:34:43;5.97;;;3.85;;
7108;SDS011;29079;41.930;25.558;2023-07-09T08:37:50;5.43;;;3.63;;
7108;SDS011;29079;41.930;25.558;2023-07-09T08:40:40;5.10;;;4.57;;
7108;SDS011;29079;41.930;25.558;2023-07-09T08:43:34;4.70;;;3.92;;
7108;SDS011;29079;41.930;25.558;2023-07-09T08:46:33;4.45;;;4.05;;
7108;SDS011;29079;41.930;25.558;2023-07-09T08:49:35;6.28;;;4.30;;
7108;SDS011;29079;41.930;25.558;2023-07-09T08:52:30;7.13;;;4.40;;
7108;SDS011;29079;41.930;25.558;2023-07-09T08:55:21;5.80;;;4.05;;
7108;SDS011;29079;41.930;25.558;2023-07-09T08:58:14;7.82;;;4.35;;
7108;SDS011;29079;41.930;25.558;2023-07-09T09:01:05;4.13;;;3.72;;
7108;SDS011;29079;41.930;25.558;2023-07-09T09:04:02;9.95;;;4.68;;
7108;SDS011;29079;41.930;25.558;2023-07-09T09:06:56;9.77;;;4.72;;
7108;SDS011;29079;41.930;25.558;2023-07-09T09:09:54;4.63;;;3.90;;
7108;SDS011;29079;41.930;25.558;2023-07-09T09:12:51;5.63;;;4.73;;
7108;SDS011;29079;41.930;25.558;2023-07-09T09:15:47;5.78;;;4.07;;
7108;SDS011;29079;41.930;25.558;2023-07-09T09:18:37;5.60;;;3.83;;
7108;SDS011;29079;41.930;25.558;2023-07-09T09:21:29;4.43;;;3.97;;
7108;SDS011;29079;41.930;25.558;2023-07-09T09:24:22;6.95;;;3.63;;
7108;SDS011;29079;41.930;25.558;2023-07-09T09:27:17;6.47;;;3.63;;
7108;SDS011;29079;41.930;25.558;2023-07-09T09:30:08;6.82;;;3.80;;
7108;SDS011;29079;41.930;25.558;2023-07-09T09:33:02;5.93;;;4.10;;
7108;SDS011;29079;41.930;25.558;2023-07-09T09:36:01;10.27;;;7.68;;
7108;SDS011;29079;41.930;25.558;2023-07-09T09:38:50;11.82;;;7.97;;
7108;SDS011;29079;41.930;25.558;2023-07-09T09:41:38;24.23;;;12.35;;
7108;SDS011;29079;41.930;25.558;2023-07-09T09:44:29;7.10;;;4.80;;
7108;SDS011;29079;41.930;25.558;2023-07-09T09:47:17;6.07;;;4.00;;
7108;SDS011;29079;41.930;25.558;2023-07-09T09:50:08;9.07;;;4.95;;
7108;SDS011;29079;41.930;25.558;2023-07-09T09:53:00;5.35;;;4.28;;
7108;SDS011;29079;41.930;25.558;2023-07-09T09:55:48;5.35;;;4.15;;
7108;SDS011;29079;41.930;25.558;2023-07-09T09:58:40;5.95;;;4.53;;
7108;SDS011;29079;41.930;25.558;2023-07-09T10:01:29;6.85;;;3.88;;
7108;SDS011;29079;41.930;25.558;2023-07-09T10:04:18;6.70;;;4.22;;
7108;SDS011;29079;41.930;25.558;2023-07-09T10:07:08;5.82;;;3.78;;
7108;SDS011;29079;41.930;25.558;2023-07-09T10:09:56;5.50;;;3.92;;
7108;SDS011;29079;41.930;25.558;2023-07-09T10:12:46;5.70;;;4.30;;
7108;SDS011;29079;41.930;25.558;2023-07-09T10:15:39;5.72;;;3.97;;
7108;SDS011;29079;41.930;25.558;2023-07-09T10:18:32;5.88;;;4.57;;
7108;SDS011;29079;41.930;25.558;2023-07-09T10:21:32;6.55;;;4.00;;
7108;SDS011;29079;41.930;25.558;2023-07-09T10:24:29;5.82;;;3.78;;
7108;SDS011;29079;41.930;25.558;2023-07-09T10:27:32;6.32;;;3.63;;
7108;SDS011;29079;41.930;25.558;2023-07-09T10:30:37;6.45;;;4.97;;
7108;SDS011;29079;41.930;25.558;2023-07-09T10:33:34;6.75;;;5.38;;
7108;SDS011;29079;41.930;25.558;2023-07-09T10:36:33;4.65;;;4.20;;
7108;SDS011;29079;41.930;25.558;2023-07-09T10:39:34;4.55;;;4.15;;
7108;SDS011;29079;41.930;25.558;2023-07-09T10:42:25;3.72;;;3.38;;
7108;SDS011;29079;41.930;25.558;2023-07-09T10:45:17;6.32;;;3.55;;
7108;SDS011;29079;41.930;25.558;2023-07-09T10:48:12;4.68;;;3.92;;
7108;SDS011;29079;41.930;25.558;2023-07-09T10:51:04;5.90;;;3.95;;
7108;SDS011;29079;41.930;25.558;2023-07-09T10:54:02;7.47;;;4.38;;
7108;SDS011;29079;41.930;25.558;2023-07-09T10:57:02;4.80;;;4.28;;
7108;SDS011;29079;41.930;25.558;2023-07-09T11:02:40;5.78;;;3.70;;
7108;SDS011;29079;41.930;25.558;2023-07-09T11:05:30;7.32;;;4.68;;
7108;SDS011;29079;41.930;25.558;2023-07-09T11:08:20;5.03;;;4.03;;
7108;SDS011;29079;41.930;25.558;2023-07-09T11:11:14;4.50;;;4.10;;
7108;SDS011;29079;41.930;25.558;2023-07-09T11:14:21;5.70;;;4.63;;
7108;SDS011;29079;41.930;25.558;2023-07-09T11:17:14;8.27;;;5.80;;
7108;SDS011;29079;41.930;25.558;2023-07-09T11:20:06;7.78;;;5.03;;
7108;SDS011;29079;41.930;25.558;2023-07-09T11:23:04;4.55;;;4.15;;
7108;SDS011;29079;41.930;25.558;2023-07-09T11:26:00;4.88;;;3.45;;
7108;SDS011;29079;41.930;25.558;2023-07-09T11:29:14;11.00;;;3.90;;
7108;SDS011;29079;41.930;25.558;2023-07-09T11:35:05;3.83;;;3.53;;
7108;SDS011;29079;41.930;25.558;2023-07-09T11:37:55;5.68;;;3.55;;
7108;SDS011;29079;41.930;25.558;2023-07-09T11:40:45;8.07;;;3.47;;
7108;SDS011;29079;41.930;25.558;2023-07-09T11:43:35;6.28;;;4.22;;
7108;SDS011;29079;41.930;25.558;2023-07-09T11:46:25;9.90;;;3.72;;
7108;SDS011;29079;41.930;25.558;2023-07-09T11:49:14;4.65;;;3.63;;
7108;SDS011;29079;41.930;25.558;2023-07-09T11:52:03;4.05;;;3.65;;
7108;SDS011;29079;41.930;25.558;2023-07-09T11:54:52;8.13;;;3.35;;
7108;SDS011;29079;41.930;25.558;2023-07-09T11:57:40;3.83;;;3.42;;
7108;SDS011;29079;41.930;25.558;2023-07-09T12:00:29;4.90;;;3.20;;
7108;SDS011;29079;41.930;25.558;2023-07-09T12:03:28;4.10;;;3.70;;
7108;SDS011;29079;41.930;25.558;2023-07-09T12:06:20;4.97;;;3.75;;
7108;SDS011;29079;41.930;25.558;2023-07-09T12:09:11;4.53;;;3.58;;
7108;SDS011;29079;41.930;25.558;2023-07-09T12:12:03;4.85;;;3.88;;
7108;SDS011;29079;41.930;25.558;2023-07-09T12:14:51;3.13;;;2.78;;
7108;SDS011;29079;41.930;25.558;2023-07-09T12:17:39;7.50;;;3.70;;
7108;SDS011;29079;41.930;25.558;2023-07-09T12:20:30;4.30;;;3.60;;
7108;SDS011;29079;41.930;25.558;2023-07-09T12:23:22;5.18;;;4.60;;
7108;SDS011;29079;41.930;25.558;2023-07-09T12:26:14;14.55;;;12.02;;
7108;SDS011;29079;41.930;25.558;2023-07-09T12:29:04;8.32;;;6.13;;
7108;SDS011;29079;41.930;25.558;2023-07-09T12:31:55;8.55;;;4.75;;
7108;SDS011;29079;41.930;25.558;2023-07-09T12:34:46;4.85;;;4.18;;
7108;SDS011;29079;41.930;25.558;2023-07-09T12:37:36;7.90;;;4.90;;
7108;SDS011;29079;41.930;25.558;2023-07-09T12:40:27;13.32;;;11.10;;
7108;SDS011;29079;41.930;25.558;2023-07-09T12:43:17;10.18;;;8.35;;
7108;SDS011;29079;41.930;25.558;2023-07-09T12:46:08;6.57;;;3.45;;
7108;SDS011;29079;41.930;25.558;2023-07-09T12:48:58;5.38;;;4.47;;
7108;SDS011;29079;41.930;25.558;2023-07-09T12:51:46;7.15;;;5.13;;
7108;SDS011;29079;41.930;25.558;2023-07-09T12:54:35;4.90;;;3.90;;
7108;SDS011;29079;41.930;25.558;2023-07-09T12:57:23;4.45;;;3.45;;
7108;SDS011;29079;41.930;25.558;2023-07-09T13:00:13;3.97;;;3.58;;
7108;SDS011;29079;41.930;25.558;2023-07-09T13:03:02;3.55;;;3.13;;
7108;SDS011;29079;41.930;25.558;2023-07-09T13:05:51;4.22;;;3.45;;
7108;SDS011;29079;41.930;25.558;2023-07-09T13:08:41;7.22;;;3.47;;
7108;SDS011;29079;41.930;25.558;2023-07-09T13:11:34;3.72;;;3.42;;
7108;SDS011;29079;41.930;25.558;2023-07-09T13:14:24;4.53;;;2.85;;
7108;SDS011;29079;41.930;25.558;2023-07-09T13:17:13;3.38;;;2.90;;
7108;SDS011;29079;41.930;25.558;2023-07-09T13:20:04;4.32;;;3.05;;
7108;SDS011;29079;41.930;25.558;2023-07-09T13:22:52;3.97;;;3.55;;
7108;SDS011;29079;41.930;25.558;2023-07-09T13:25:40;5.15;;;3.35;;
7108;SDS011;29079;41.930;25.558;2023-07-09T13:28:35;4.40;;;3.13;;
7108;SDS011;29079;41.930;25.558;2023-07-09T13:31:23;3.33;;;3.03;;
7108;SDS011;29079;41.930;25.558;2023-07-09T13:34:16;4.53;;;3.30;;
7108;SDS011;29079;41.930;25.558;2023-07-09T13:37:09;4.28;;;3.38;;
7108;SDS011;29079;41.930;25.558;2023-07-09T13:39:59;6.40;;;3.55;;
7108;SDS011;29079;41.930;25.558;2023-07-09T13:42:47;3.78;;;3.00;;
7108;SDS011;29079;41.930;25.558;2023-07-09T13:45:37;9.75;;;5.07;;
7108;SDS011;29079;41.930;25.558;2023-07-09T13:48:26;9.68;;;7.57;;
7108;SDS011;29079;41.930;25.558;2023-07-09T13:51:17;15.98;;;11.95;;
7108;SDS011;29079;41.930;25.558;2023-07-09T13:54:12;8.60;;;6.80;;
7108;SDS011;29079;41.930;25.558;2023-07-09T13:57:03;7.80;;;6.32;;
7108;SDS011;29079;41.930;25.558;2023-07-09T13:59:53;5.55;;;4.30;;
7108;SDS011;29079;41.930;25.558;2023-07-09T14:02:43;7.68;;;4.30;;
7108;SDS011;29079;41.930;25.558;2023-07-09T14:05:32;5.30;;;3.75;;
7108;SDS011;29079;41.930;25.558;2023-07-09T14:08:20;4.60;;;4.00;;
7108;SDS011;29079;41.930;25.558;2023-07-09T14:11:09;4.88;;;3.90;;
7108;SDS011;29079;41.930;25.558;2023-07-09T14:13:58;4.35;;;3.10;;
7108;SDS011;29079;41.930;25.558;2023-07-09T14:16:47;5.18;;;3.65;;
7108;SDS011;29079;41.930;25.558;2023-07-09T14:19:37;8.50;;;4.00;;
7108;SDS011;29079;41.930;25.558;2023-07-09T14:22:26;7.38;;;4.80;;
7108;SDS011;29079;41.930;25.558;2023-07-09T14:25:19;5.32;;;3.40;;
7108;SDS011;29079;41.930;25.558;2023-07-09T14:28:10;9.30;;;5.25;;
7108;SDS011;29079;41.930;25.558;2023-07-09T14:30:59;6.25;;;4.63;;
7108;SDS011;29079;41.930;25.558;2023-07-09T14:33:49;5.00;;;4.22;;
7108;SDS011;29079;41.930;25.558;2023-07-09T14:36:38;7.47;;;6.22;;
7108;SDS011;29079;41.930;25.558;2023-07-09T14:39:26;6.28;;;5.68;;
7108;SDS011;29079;41.930;25.558;2023-07-09T14:42:15;7.20;;;6.03;;
7108;SDS011;29079;41.930;25.558;2023-07-09T14:45:03;5.95;;;5.30;;
7108;SDS011;29079;41.930;25.558;2023-07-09T14:47:53;5.65;;;4.32;;
7108;SDS011;29079;41.930;25.558;2023-07-09T14:50:42;5.18;;;4.68;;
7108;SDS011;29079;41.930;25.558;2023-07-09T14:53:33;7.93;;;4.70;;
7108;SDS011;29079;41.930;25.558;2023-07-09T14:56:20;5.63;;;4.55;;
7108;SDS011;29079;41.930;25.558;2023-07-09T14:59:08;6.25;;;4.80;;
7108;SDS011;29079;41.930;25.558;2023-07-09T15:01:56;9.48;;;6.22;;
7108;SDS011;29079;41.930;25.558;2023-07-09T15:04:44;6.57;;;5.85;;
7108;SDS011;29079;41.930;25.558;2023-07-09T15:07:32;8.10;;;6.65;;
7108;SDS011;29079;41.930;25.558;2023-07-09T15:10:22;6.68;;;4.85;;
7108;SDS011;29079;41.930;25.558;2023-07-09T15:13:16;6.93;;;5.00;;
7108;SDS011;29079;41.930;25.558;2023-07-09T15:16:06;5.78;;;4.30;;
7108;SDS011;29079;41.930;25.558;2023-07-09T15:18:54;5.15;;;3.88;;
7108;SDS011;29079;41.930;25.558;2023-07-09T15:21:42;7.55;;;4.50;;
7108;SDS011;29079;41.930;25.558;2023-07-09T15:24:31;5.43;;;3.90;;
7108;SDS011;29079;41.930;25.558;2023-07-09T15:27:22;5.75;;;4.50;;
7108;SDS011;29079;41.930;25.558;2023-07-09T15:30:15;4.88;;;3.80;;
7108;SDS011;29079;41.930;25.558;2023-07-09T15:33:08;5.35;;;3.90;;
7108;SDS011;29079;41.930;25.558;2023-07-09T15:38:47;14.80;;;11.40;;
7108;SDS011;29079;41.930;25.558;2023-07-09T15:41:35;43.20;;;32.70;;
7108;SDS011;29079;41.930;25.558;2023-07-09T15:44:25;30.50;;;24.15;;
7108;SDS011;29079;41.930;25.558;2023-07-09T15:47:15;15.98;;;13.25;;
7108;SDS011;29079;41.930;25.558;2023-07-09T15:50:07;18.25;;;15.45;;
7108;SDS011;29079;41.930;25.558;2023-07-09T15:53:07;8.68;;;6.82;;
7108;SDS011;29079;41.930;25.558;2023-07-09T15:55:59;8.07;;;5.05;;
7108;SDS011;29079;41.930;25.558;2023-07-09T15:58:48;7.75;;;5.72;;
7108;SDS011;29079;41.930;25.558;2023-07-09T16:01:39;6.75;;;4.82;;
7108;SDS011;29079;41.930;25.558;2023-07-09T16:04:28;6.05;;;4.50;;
7108;SDS011;29079;41.930;25.558;2023-07-09T16:07:16;8.95;;;5.03;;
7108;SDS011;29079;41.930;25.558;2023-07-09T16:10:05;7.30;;;4.18;;
7108;SDS011;29079;41.930;25.558;2023-07-09T16:12:53;4.70;;;4.30;;
7108;SDS011;29079;41.930;25.558;2023-07-09T16:15:41;5.38;;;4.68;;
7108;SDS011;29079;41.930;25.558;2023-07-09T16:18:30;4.00;;;3.60;;
7108;SDS011;29079;41.930;25.558;2023-07-09T16:21:21;5.80;;;4.35;;
7108;SDS011;29079;41.930;25.558;2023-07-09T16:24:13;5.30;;;4.22;;
7108;SDS011;29079;41.930;25.558;2023-07-09T16:27:09;5.95;;;4.20;;
7108;SDS011;29079;41.930;25.558;2023-07-09T16:30:07;7.38;;;3.78;;
7108;SDS011;29079;41.930;25.558;2023-07-09T16:32:58;4.38;;;3.63;;
7108;SDS011;29079;41.930;25.558;2023-07-09T16:35:50;7.05;;;4.18;;
7108;SDS011;29079;41.930;25.558;2023-07-09T16:38:41;6.00;;;4.30;;
7108;SDS011;29079;41.930;25.558;2023-07-09T16:41:28;4.40;;;3.63;;
7108;SDS011;29079;41.930;25.558;2023-07-09T16:44:16;4.72;;;3.80;;
7108;SDS011;29079;41.930;25.558;2023-07-09T16:47:05;3.92;;;3.53;;
7108;SDS011;29079;41.930;25.558;2023-07-09T16:50:02;7.55;;;3.88;;
7108;SDS011;29079;41.930;25.558;2023-07-09T16:52:52;4.38;;;3.97;;
7108;SDS011;29079;41.930;25.558;2023-07-09T16:55:41;4.80;;;4.28;;
7108;SDS011;29079;41.930;25.558;2023-07-09T16:58:30;6.43;;;3.85;;
7108;SDS011;29079;41.930;25.558;2023-07-09T17:01:21;4.38;;;3.58;;
7108;SDS011;29079;41.930;25.558;2023-07-09T17:04:14;6.30;;;3.72;;
7108;SDS011;29079;41.930;25.558;2023-07-09T17:07:07;4.80;;;4.30;;
7108;SDS011;29079;41.930;25.558;2023-07-09T17:09:56;6.95;;;4.03;;
7108;SDS011;29079;41.930;25.558;2023-07-09T17:12:45;6.55;;;3.88;;
7108;SDS011;29079;41.930;25.558;2023-07-09T17:15:35;6.28;;;3.85;;